sensor_id;sensor_type;location;lat;lon;timestamp;P1;durP1;ratioP1;P2;durP2;ratioP2
13228;SDS011;6680;53.220;10.402;2023-11-21T00:00:38;4.57;;;2.97;;
13228;SDS011;6680;53.220;10.402;2023-11-21T00:03:08;3.50;;;3.20;;
13228;SDS011;6680;53.220;10.402;2023-11-21T00:05:36;2.23;;;2.03;;
13228;SDS011;6680;53.220;10.402;2023-11-21T00:08:03;3.03;;;2.53;;
13228;SDS011;6680;53.220;10.402;2023-11-21T00:10:30;3.53;;;2.90;;
13228;SDS011;6680;53.220;10.402;2023-11-21T00:12:57;6.07;;;3.33;;
13228;SDS011;6680;53.220;10.402;2023-11-21T00:15:24;2.97;;;2.67;;
13228;SDS011;6680;53.220;10.402;2023-11-21T00:17:51;2.40;;;2.20;;
13228;SDS011;6680;53.220;10.402;2023-11-21T00:20:20;3.33;;;2.87;;
13228;SDS011;6680;53.220;10.402;2023-11-21T00:22:47;6.73;;;3.20;;
13228;SDS011;6680;53.220;10.402;2023-11-21T00:25:14;3.83;;;2.73;;
13228;SDS011;6680;53.220;10.402;2023-11-21T00:27:42;2.70;;;2.50;;
13228;SDS011;6680;53.220;10.402;2023-11-21T00:30:09;4.27;;;2.87;;
13228;SDS011;6680;53.220;10.402;2023-11-21T00:32:37;3.70;;;2.57;;
13228;SDS011;6680;53.220;10.402;2023-11-21T00:35:05;2.90;;;2.37;;
13228;SDS011;6680;53.220;10.402;2023-11-21T00:37:33;6.90;;;2.60;;
13228;SDS011;6680;53.220;10.402;2023-11-21T00:40:00;2.90;;;2.63;;
13228;SDS011;6680;53.220;10.402;2023-11-21T00:42:30;4.10;;;3.27;;
13228;SDS011;6680;53.220;10.402;2023-11-21T00:44:57;3.03;;;2.70;;
13228;SDS011;6680;53.220;10.402;2023-11-21T00:47:23;4.53;;;3.30;;
13228;SDS011;6680;53.220;10.402;2023-11-21T00:49:50;4.47;;;3.90;;
13228;SDS011;6680;53.220;10.402;2023-11-21T00:52:18;3.70;;;3.00;;
13228;SDS011;6680;53.220;10.402;2023-11-21T00:54:46;5.07;;;3.60;;
13228;SDS011;6680;53.220;10.402;2023-11-21T00:57:13;5.30;;;4.10;;
13228;SDS011;6680;53.220;10.402;2023-11-21T00:59:40;4.73;;;3.70;;
13228;SDS011;6680;53.220;10.402;2023-11-21T01:02:06;4.63;;;3.93;;
13228;SDS011;6680;53.220;10.402;2023-11-21T01:04:35;4.77;;;3.63;;
13228;SDS011;6680;53.220;10.402;2023-11-21T01:07:02;4.37;;;3.60;;
13228;SDS011;6680;53.220;10.402;2023-11-21T01:09:30;5.73;;;4.50;;
13228;SDS011;6680;53.220;10.402;2023-11-21T01:11:58;5.20;;;4.23;;
13228;SDS011;6680;53.220;10.402;2023-11-21T01:14:26;5.17;;;3.73;;
13228;SDS011;6680;53.220;10.402;2023-11-21T01:16:53;5.80;;;4.10;;
13228;SDS011;6680;53.220;10.402;2023-11-21T01:19:20;6.90;;;4.63;;
13228;SDS011;6680;53.220;10.402;2023-11-21T01:21:47;9.80;;;5.17;;
13228;SDS011;6680;53.220;10.402;2023-11-21T01:24:14;7.43;;;5.23;;
13228;SDS011;6680;53.220;10.402;2023-11-21T01:26:40;9.07;;;5.20;;
13228;SDS011;6680;53.220;10.402;2023-11-21T01:29:08;7.27;;;4.67;;
13228;SDS011;6680;53.220;10.402;2023-11-21T01:31:35;8.53;;;5.07;;
13228;SDS011;6680;53.220;10.402;2023-11-21T01:34:02;9.53;;;5.63;;
13228;SDS011;6680;53.220;10.402;2023-11-21T01:36:30;8.57;;;6.23;;
13228;SDS011;6680;53.220;10.402;2023-11-21T01:38:58;8.47;;;5.50;;
13228;SDS011;6680;53.220;10.402;2023-11-21T01:41:25;9.17;;;5.70;;
13228;SDS011;6680;53.220;10.402;2023-11-21T01:43:53;8.60;;;5.90;;
13228;SDS011;6680;53.220;10.402;2023-11-21T01:46:22;9.67;;;6.40;;
13228;SDS011;6680;53.220;10.402;2023-11-21T01:48:49;11.23;;;6.33;;
13228;SDS011;6680;53.220;10.402;2023-11-21T01:51:16;10.67;;;6.90;;
13228;SDS011;6680;53.220;10.402;2023-11-21T01:53:43;11.53;;;7.30;;
13228;SDS011;6680;53.220;10.402;2023-11-21T01:56:11;9.30;;;6.20;;
13228;SDS011;6680;53.220;10.402;2023-11-21T01:58:39;9.73;;;6.00;;
13228;SDS011;6680;53.220;10.402;2023-11-21T02:01:06;9.03;;;5.37;;
13228;SDS011;6680;53.220;10.402;2023-11-21T02:03:35;7.87;;;6.00;;
13228;SDS011;6680;53.220;10.402;2023-11-21T02:06:01;10.70;;;6.17;;
13228;SDS011;6680;53.220;10.402;2023-11-21T02:08:28;10.77;;;6.67;;
13228;SDS011;6680;53.220;10.402;2023-11-21T02:10:54;10.50;;;6.10;;
13228;SDS011;6680;53.220;10.402;2023-11-21T02:13:22;9.27;;;6.43;;
13228;SDS011;6680;53.220;10.402;2023-11-21T02:15:49;10.07;;;6.27;;
13228;SDS011;6680;53.220;10.402;2023-11-21T02:18:19;10.70;;;6.80;;
13228;SDS011;6680;53.220;10.402;2023-11-21T02:20:48;9.10;;;6.07;;
13228;SDS011;6680;53.220;10.402;2023-11-21T02:23:17;9.87;;;6.57;;
13228;SDS011;6680;53.220;10.402;2023-11-21T02:25:44;9.77;;;6.60;;
13228;SDS011;6680;53.220;10.402;2023-11-21T02:28:12;9.43;;;6.73;;
13228;SDS011;6680;53.220;10.402;2023-11-21T02:30:40;10.80;;;7.07;;
13228;SDS011;6680;53.220;10.402;2023-11-21T02:33:07;10.07;;;7.17;;
13228;SDS011;6680;53.220;10.402;2023-11-21T02:35:34;11.87;;;7.93;;
13228;SDS011;6680;53.220;10.402;2023-11-21T02:38:01;12.40;;;7.07;;
13228;SDS011;6680;53.220;10.402;2023-11-21T02:40:29;13.83;;;8.27;;
13228;SDS011;6680;53.220;10.402;2023-11-21T02:42:56;11.90;;;7.70;;
13228;SDS011;6680;53.220;10.402;2023-11-21T02:45:24;11.67;;;7.53;;
13228;SDS011;6680;53.220;10.402;2023-11-21T02:47:51;12.30;;;7.80;;
13228;SDS011;6680;53.220;10.402;2023-11-21T02:50:21;9.27;;;7.10;;
13228;SDS011;6680;53.220;10.402;2023-11-21T02:52:48;10.50;;;7.30;;
13228;SDS011;6680;53.220;10.402;2023-11-21T02:55:16;13.20;;;7.63;;
13228;SDS011;6680;53.220;10.402;2023-11-21T02:57:44;13.60;;;8.53;;
13228;SDS011;6680;53.220;10.402;2023-11-21T03:00:11;14.60;;;8.23;;
13228;SDS011;6680;53.220;10.402;2023-11-21T03:02:40;10.03;;;6.93;;
13228;SDS011;6680;53.220;10.402;2023-11-21T03:05:07;8.90;;;6.77;;
13228;SDS011;6680;53.220;10.402;2023-11-21T03:07:35;12.30;;;7.60;;
13228;SDS011;6680;53.220;10.402;2023-11-21T03:10:02;12.13;;;6.73;;
13228;SDS011;6680;53.220;10.402;2023-11-21T03:12:30;10.90;;;7.47;;
13228;SDS011;6680;53.220;10.402;2023-11-21T03:14:58;10.70;;;6.90;;
13228;SDS011;6680;53.220;10.402;2023-11-21T03:17:26;10.97;;;7.80;;
13228;SDS011;6680;53.220;10.402;2023-11-21T03:19:54;9.87;;;7.30;;
13228;SDS011;6680;53.220;10.402;2023-11-21T03:22:22;10.80;;;7.53;;
13228;SDS011;6680;53.220;10.402;2023-11-21T03:24:49;11.37;;;7.47;;
13228;SDS011;6680;53.220;10.402;2023-11-21T03:27:16;12.40;;;8.20;;
13228;SDS011;6680;53.220;10.402;2023-11-21T03:29:43;10.60;;;7.13;;
13228;SDS011;6680;53.220;10.402;2023-11-21T03:32:11;9.43;;;6.80;;
13228;SDS011;6680;53.220;10.402;2023-11-21T03:34:52;10.93;;;7.70;;
13228;SDS011;6680;53.220;10.402;2023-11-21T03:37:20;10.10;;;7.13;;
13228;SDS011;6680;53.220;10.402;2023-11-21T03:39:47;11.33;;;6.63;;
13228;SDS011;6680;53.220;10.402;2023-11-21T03:42:14;11.40;;;7.17;;
13228;SDS011;6680;53.220;10.402;2023-11-21T03:44:40;11.43;;;7.07;;
13228;SDS011;6680;53.220;10.402;2023-11-21T03:47:07;9.00;;;6.73;;
13228;SDS011;6680;53.220;10.402;2023-11-21T03:49:35;11.40;;;7.47;;
13228;SDS011;6680;53.220;10.402;2023-11-21T03:52:02;10.00;;;6.87;;
13228;SDS011;6680;53.220;10.402;2023-11-21T03:54:29;8.17;;;5.83;;
13228;SDS011;6680;53.220;10.402;2023-11-21T03:56:56;11.87;;;7.43;;
13228;SDS011;6680;53.220;10.402;2023-11-21T03:59:23;8.17;;;6.40;;
13228;SDS011;6680;53.220;10.402;2023-11-21T04:01:50;8.70;;;6.53;;
13228;SDS011;6680;53.220;10.402;2023-11-21T04:04:17;9.90;;;7.10;;
13228;SDS011;6680;53.220;10.402;2023-11-21T04:06:46;9.27;;;6.53;;
13228;SDS011;6680;53.220;10.402;2023-11-21T04:09:12;9.80;;;6.40;;
13228;SDS011;6680;53.220;10.402;2023-11-21T04:11:39;12.50;;;6.97;;
13228;SDS011;6680;53.220;10.402;2023-11-21T04:14:08;9.40;;;6.27;;
13228;SDS011;6680;53.220;10.402;2023-11-21T04:16:34;12.87;;;6.73;;
13228;SDS011;6680;53.220;10.402;2023-11-21T04:19:01;8.20;;;6.23;;
13228;SDS011;6680;53.220;10.402;2023-11-21T04:21:29;10.93;;;6.30;;
13228;SDS011;6680;53.220;10.402;2023-11-21T04:23:57;12.40;;;6.27;;
13228;SDS011;6680;53.220;10.402;2023-11-21T04:26:23;8.67;;;6.70;;
13228;SDS011;6680;53.220;10.402;2023-11-21T04:28:50;10.03;;;6.23;;
13228;SDS011;6680;53.220;10.402;2023-11-21T04:31:17;11.70;;;6.20;;
13228;SDS011;6680;53.220;10.402;2023-11-21T04:33:44;10.23;;;6.43;;
13228;SDS011;6680;53.220;10.402;2023-11-21T04:36:11;9.60;;;6.93;;
13228;SDS011;6680;53.220;10.402;2023-11-21T04:38:38;9.63;;;6.00;;
13228;SDS011;6680;53.220;10.402;2023-11-21T04:41:07;8.47;;;6.20;;
13228;SDS011;6680;53.220;10.402;2023-11-21T04:43:34;9.80;;;6.90;;
13228;SDS011;6680;53.220;10.402;2023-11-21T04:46:01;7.67;;;6.20;;
13228;SDS011;6680;53.220;10.402;2023-11-21T04:48:28;7.03;;;5.63;;
13228;SDS011;6680;53.220;10.402;2023-11-21T04:50:55;8.40;;;6.83;;
13228;SDS011;6680;53.220;10.402;2023-11-21T04:53:21;9.13;;;5.50;;
13228;SDS011;6680;53.220;10.402;2023-11-21T04:55:48;8.33;;;5.63;;
13228;SDS011;6680;53.220;10.402;2023-11-21T04:58:16;10.97;;;6.23;;
13228;SDS011;6680;53.220;10.402;2023-11-21T05:00:44;9.87;;;6.50;;
13228;SDS011;6680;53.220;10.402;2023-11-21T05:03:11;7.87;;;5.87;;
13228;SDS011;6680;53.220;10.402;2023-11-21T05:05:38;8.47;;;5.77;;
13228;SDS011;6680;53.220;10.402;2023-11-21T05:08:04;7.00;;;5.80;;
13228;SDS011;6680;53.220;10.402;2023-11-21T05:10:31;7.43;;;5.60;;
13228;SDS011;6680;53.220;10.402;2023-11-21T05:12:59;7.80;;;6.10;;
13228;SDS011;6680;53.220;10.402;2023-11-21T05:15:27;8.50;;;6.07;;
13228;SDS011;6680;53.220;10.402;2023-11-21T05:17:54;8.53;;;6.60;;
13228;SDS011;6680;53.220;10.402;2023-11-21T05:20:25;9.00;;;6.83;;
13228;SDS011;6680;53.220;10.402;2023-11-21T05:22:51;8.53;;;6.10;;
13228;SDS011;6680;53.220;10.402;2023-11-21T05:25:18;9.33;;;6.80;;
13228;SDS011;6680;53.220;10.402;2023-11-21T05:27:45;8.53;;;6.20;;
13228;SDS011;6680;53.220;10.402;2023-11-21T05:30:12;7.50;;;5.93;;
13228;SDS011;6680;53.220;10.402;2023-11-21T05:32:41;9.20;;;6.40;;
13228;SDS011;6680;53.220;10.402;2023-11-21T05:35:08;8.97;;;6.57;;
13228;SDS011;6680;53.220;10.402;2023-11-21T05:37:39;9.67;;;6.17;;
13228;SDS011;6680;53.220;10.402;2023-11-21T05:40:06;9.63;;;6.57;;
13228;SDS011;6680;53.220;10.402;2023-11-21T05:42:35;9.83;;;6.60;;
13228;SDS011;6680;53.220;10.402;2023-11-21T05:45:03;9.37;;;6.73;;
13228;SDS011;6680;53.220;10.402;2023-11-21T05:47:35;9.40;;;6.33;;
13228;SDS011;6680;53.220;10.402;2023-11-21T05:50:04;11.07;;;7.30;;
13228;SDS011;6680;53.220;10.402;2023-11-21T05:52:35;11.63;;;7.90;;
13228;SDS011;6680;53.220;10.402;2023-11-21T05:55:02;13.17;;;8.00;;
13228;SDS011;6680;53.220;10.402;2023-11-21T05:57:32;13.43;;;7.73;;
13228;SDS011;6680;53.220;10.402;2023-11-21T05:59:59;8.93;;;6.63;;
13228;SDS011;6680;53.220;10.402;2023-11-21T06:02:34;11.03;;;7.43;;
13228;SDS011;6680;53.220;10.402;2023-11-21T06:05:01;9.33;;;7.10;;
13228;SDS011;6680;53.220;10.402;2023-11-21T06:07:30;12.17;;;8.27;;
13228;SDS011;6680;53.220;10.402;2023-11-21T06:09:57;10.70;;;6.67;;
13228;SDS011;6680;53.220;10.402;2023-11-21T06:12:24;12.20;;;7.63;;
13228;SDS011;6680;53.220;10.402;2023-11-21T06:14:51;10.20;;;7.43;;
13228;SDS011;6680;53.220;10.402;2023-11-21T06:17:18;13.87;;;7.37;;
13228;SDS011;6680;53.220;10.402;2023-11-21T06:19:45;10.27;;;7.10;;
13228;SDS011;6680;53.220;10.402;2023-11-21T06:22:11;11.20;;;7.63;;
13228;SDS011;6680;53.220;10.402;2023-11-21T06:24:40;9.40;;;6.40;;
13228;SDS011;6680;53.220;10.402;2023-11-21T06:27:07;11.63;;;7.70;;
13228;SDS011;6680;53.220;10.402;2023-11-21T06:29:34;11.83;;;7.93;;
13228;SDS011;6680;53.220;10.402;2023-11-21T06:32:02;12.10;;;7.83;;
13228;SDS011;6680;53.220;10.402;2023-11-21T06:34:30;14.03;;;6.73;;
13228;SDS011;6680;53.220;10.402;2023-11-21T06:36:57;11.87;;;7.17;;
13228;SDS011;6680;53.220;10.402;2023-11-21T06:39:23;11.93;;;7.03;;
13228;SDS011;6680;53.220;10.402;2023-11-21T06:41:51;11.70;;;6.63;;
13228;SDS011;6680;53.220;10.402;2023-11-21T06:44:18;10.23;;;7.00;;
13228;SDS011;6680;53.220;10.402;2023-11-21T06:46:45;10.03;;;7.03;;
13228;SDS011;6680;53.220;10.402;2023-11-21T06:49:13;8.33;;;6.60;;
13228;SDS011;6680;53.220;10.402;2023-11-21T06:51:41;10.67;;;6.77;;
13228;SDS011;6680;53.220;10.402;2023-11-21T06:54:08;11.30;;;6.50;;
13228;SDS011;6680;53.220;10.402;2023-11-21T06:56:35;10.63;;;7.10;;
13228;SDS011;6680;53.220;10.402;2023-11-21T06:59:03;11.30;;;7.17;;
13228;SDS011;6680;53.220;10.402;2023-11-21T07:01:30;10.47;;;6.77;;
13228;SDS011;6680;53.220;10.402;2023-11-21T07:04:04;9.43;;;6.43;;
13228;SDS011;6680;53.220;10.402;2023-11-21T07:06:31;9.50;;;6.77;;
13228;SDS011;6680;53.220;10.402;2023-11-21T07:08:58;9.43;;;7.27;;
13228;SDS011;6680;53.220;10.402;2023-11-21T07:11:26;7.47;;;6.20;;
13228;SDS011;6680;53.220;10.402;2023-11-21T07:13:53;10.53;;;6.80;;
13228;SDS011;6680;53.220;10.402;2023-11-21T07:16:21;10.70;;;6.97;;
13228;SDS011;6680;53.220;10.402;2023-11-21T07:18:48;10.50;;;7.10;;
13228;SDS011;6680;53.220;10.402;2023-11-21T07:21:15;10.87;;;6.77;;
13228;SDS011;6680;53.220;10.402;2023-11-21T07:23:42;10.83;;;7.40;;
13228;SDS011;6680;53.220;10.402;2023-11-21T07:26:09;9.63;;;6.50;;
13228;SDS011;6680;53.220;10.402;2023-11-21T07:28:36;10.33;;;7.10;;
13228;SDS011;6680;53.220;10.402;2023-11-21T07:31:03;8.37;;;6.30;;
13228;SDS011;6680;53.220;10.402;2023-11-21T07:33:32;9.57;;;6.77;;
13228;SDS011;6680;53.220;10.402;2023-11-21T07:35:58;9.27;;;6.10;;
13228;SDS011;6680;53.220;10.402;2023-11-21T07:38:26;8.20;;;6.20;;
13228;SDS011;6680;53.220;10.402;2023-11-21T07:40:53;7.13;;;5.87;;
13228;SDS011;6680;53.220;10.402;2023-11-21T07:43:20;10.73;;;6.20;;
13228;SDS011;6680;53.220;10.402;2023-11-21T07:45:47;9.30;;;7.27;;
13228;SDS011;6680;53.220;10.402;2023-11-21T07:48:14;9.10;;;6.70;;
13228;SDS011;6680;53.220;10.402;2023-11-21T07:50:42;9.20;;;6.57;;
13228;SDS011;6680;53.220;10.402;2023-11-21T07:53:09;10.20;;;6.70;;
13228;SDS011;6680;53.220;10.402;2023-11-21T07:55:36;8.50;;;6.20;;
13228;SDS011;6680;53.220;10.402;2023-11-21T07:58:03;11.50;;;7.03;;
13228;SDS011;6680;53.220;10.402;2023-11-21T08:00:29;10.07;;;6.30;;
13228;SDS011;6680;53.220;10.402;2023-11-21T08:02:56;9.67;;;6.57;;
13228;SDS011;6680;53.220;10.402;2023-11-21T08:05:23;9.97;;;6.77;;
13228;SDS011;6680;53.220;10.402;2023-11-21T08:07:51;10.63;;;7.20;;
13228;SDS011;6680;53.220;10.402;2023-11-21T08:10:18;9.53;;;7.17;;
13228;SDS011;6680;53.220;10.402;2023-11-21T08:12:46;10.13;;;6.03;;
13228;SDS011;6680;53.220;10.402;2023-11-21T08:15:13;9.93;;;6.60;;
13228;SDS011;6680;53.220;10.402;2023-11-21T08:17:40;9.70;;;6.60;;
13228;SDS011;6680;53.220;10.402;2023-11-21T08:20:07;11.67;;;7.03;;
13228;SDS011;6680;53.220;10.402;2023-11-21T08:22:36;9.13;;;6.40;;
13228;SDS011;6680;53.220;10.402;2023-11-21T08:25:07;10.53;;;7.93;;
13228;SDS011;6680;53.220;10.402;2023-11-21T08:27:35;10.23;;;7.73;;
13228;SDS011;6680;53.220;10.402;2023-11-21T08:30:02;10.83;;;6.57;;
13228;SDS011;6680;53.220;10.402;2023-11-21T08:32:29;11.30;;;6.87;;
13228;SDS011;6680;53.220;10.402;2023-11-21T08:34:57;10.23;;;7.13;;
13228;SDS011;6680;53.220;10.402;2023-11-21T08:37:24;11.53;;;6.80;;
13228;SDS011;6680;53.220;10.402;2023-11-21T08:39:52;13.03;;;7.90;;
13228;SDS011;6680;53.220;10.402;2023-11-21T08:42:20;9.67;;;7.30;;
13228;SDS011;6680;53.220;10.402;2023-11-21T08:44:48;9.00;;;6.90;;
13228;SDS011;6680;53.220;10.402;2023-11-21T08:47:14;9.90;;;7.23;;
13228;SDS011;6680;53.220;10.402;2023-11-21T08:49:41;10.10;;;6.90;;
13228;SDS011;6680;53.220;10.402;2023-11-21T08:52:08;8.57;;;6.63;;
13228;SDS011;6680;53.220;10.402;2023-11-21T08:54:35;12.40;;;7.90;;
13228;SDS011;6680;53.220;10.402;2023-11-21T08:57:03;7.93;;;5.90;;
13228;SDS011;6680;53.220;10.402;2023-11-21T08:59:32;9.60;;;6.70;;
13228;SDS011;6680;53.220;10.402;2023-11-21T09:01:58;8.43;;;6.53;;
13228;SDS011;6680;53.220;10.402;2023-11-21T09:04:25;9.73;;;6.33;;
13228;SDS011;6680;53.220;10.402;2023-11-21T09:06:52;10.40;;;6.90;;
13228;SDS011;6680;53.220;10.402;2023-11-21T09:09:19;10.70;;;6.57;;
13228;SDS011;6680;53.220;10.402;2023-11-21T09:11:46;8.23;;;6.37;;
13228;SDS011;6680;53.220;10.402;2023-11-21T09:14:14;10.83;;;6.27;;
13228;SDS011;6680;53.220;10.402;2023-11-21T09:16:43;8.40;;;6.50;;
13228;SDS011;6680;53.220;10.402;2023-11-21T09:19:10;10.57;;;7.30;;
13228;SDS011;6680;53.220;10.402;2023-11-21T09:21:39;10.67;;;6.47;;
13228;SDS011;6680;53.220;10.402;2023-11-21T09:24:06;9.53;;;6.67;;
13228;SDS011;6680;53.220;10.402;2023-11-21T09:26:34;7.07;;;5.67;;
13228;SDS011;6680;53.220;10.402;2023-11-21T09:29:01;9.33;;;6.47;;
13228;SDS011;6680;53.220;10.402;2023-11-21T09:31:28;8.97;;;5.47;;
13228;SDS011;6680;53.220;10.402;2023-11-21T09:33:57;11.37;;;6.60;;
13228;SDS011;6680;53.220;10.402;2023-11-21T09:36:24;10.60;;;6.80;;
13228;SDS011;6680;53.220;10.402;2023-11-21T09:38:53;9.03;;;6.20;;
13228;SDS011;6680;53.220;10.402;2023-11-21T09:41:34;9.07;;;5.90;;
13228;SDS011;6680;53.220;10.402;2023-11-21T09:44:09;9.23;;;5.90;;
13228;SDS011;6680;53.220;10.402;2023-11-21T09:46:40;8.27;;;5.63;;
13228;SDS011;6680;53.220;10.402;2023-11-21T09:49:09;7.70;;;5.53;;
13228;SDS011;6680;53.220;10.402;2023-11-21T09:51:38;8.33;;;5.63;;
13228;SDS011;6680;53.220;10.402;2023-11-21T09:54:08;9.43;;;5.87;;
13228;SDS011;6680;53.220;10.402;2023-11-21T09:56:37;7.90;;;5.70;;
13228;SDS011;6680;53.220;10.402;2023-11-21T09:59:04;7.93;;;5.70;;
13228;SDS011;6680;53.220;10.402;2023-11-21T10:01:35;7.30;;;5.00;;
13228;SDS011;6680;53.220;10.402;2023-11-21T10:04:04;6.43;;;5.03;;
13228;SDS011;6680;53.220;10.402;2023-11-21T10:06:38;7.57;;;5.20;;
13228;SDS011;6680;53.220;10.402;2023-11-21T10:09:06;6.63;;;5.10;;
13228;SDS011;6680;53.220;10.402;2023-11-21T10:11:37;7.67;;;5.70;;
13228;SDS011;6680;53.220;10.402;2023-11-21T10:14:07;5.73;;;4.87;;
13228;SDS011;6680;53.220;10.402;2023-11-21T10:16:38;5.87;;;4.57;;
13228;SDS011;6680;53.220;10.402;2023-11-21T10:19:05;7.73;;;4.80;;
13228;SDS011;6680;53.220;10.402;2023-11-21T10:21:34;5.93;;;4.57;;
13228;SDS011;6680;53.220;10.402;2023-11-21T10:24:03;7.53;;;5.00;;
13228;SDS011;6680;53.220;10.402;2023-11-21T10:26:31;7.37;;;4.80;;
13228;SDS011;6680;53.220;10.402;2023-11-21T10:29:00;6.13;;;4.90;;
13228;SDS011;6680;53.220;10.402;2023-11-21T10:31:28;6.63;;;5.37;;
13228;SDS011;6680;53.220;10.402;2023-11-21T10:33:56;8.13;;;4.73;;
13228;SDS011;6680;53.220;10.402;2023-11-21T10:36:37;5.87;;;4.77;;
13228;SDS011;6680;53.220;10.402;2023-11-21T10:39:05;6.57;;;4.73;;
13228;SDS011;6680;53.220;10.402;2023-11-21T10:41:32;5.80;;;4.20;;
13228;SDS011;6680;53.220;10.402;2023-11-21T10:44:00;7.23;;;4.53;;
13228;SDS011;6680;53.220;10.402;2023-11-21T10:46:29;4.80;;;3.90;;
13228;SDS011;6680;53.220;10.402;2023-11-21T10:48:56;4.93;;;3.77;;
13228;SDS011;6680;53.220;10.402;2023-11-21T10:51:23;5.80;;;4.37;;
13228;SDS011;6680;53.220;10.402;2023-11-21T10:53:51;5.97;;;3.87;;
13228;SDS011;6680;53.220;10.402;2023-11-21T10:56:21;5.70;;;4.20;;
13228;SDS011;6680;53.220;10.402;2023-11-21T10:58:49;5.67;;;4.60;;
13228;SDS011;6680;53.220;10.402;2023-11-21T11:01:17;6.63;;;3.97;;
13228;SDS011;6680;53.220;10.402;2023-11-21T11:03:46;6.67;;;3.90;;
13228;SDS011;6680;53.220;10.402;2023-11-21T11:06:14;5.13;;;3.73;;
13228;SDS011;6680;53.220;10.402;2023-11-21T11:08:41;4.10;;;3.60;;
13228;SDS011;6680;53.220;10.402;2023-11-21T11:11:09;7.20;;;4.17;;
13228;SDS011;6680;53.220;10.402;2023-11-21T11:13:39;4.43;;;3.70;;
13228;SDS011;6680;53.220;10.402;2023-11-21T11:16:10;4.53;;;3.07;;
13228;SDS011;6680;53.220;10.402;2023-11-21T11:18:42;4.10;;;3.70;;
13228;SDS011;6680;53.220;10.402;2023-11-21T11:21:11;4.03;;;3.57;;
13228;SDS011;6680;53.220;10.402;2023-11-21T11:23:51;4.87;;;3.57;;
13228;SDS011;6680;53.220;10.402;2023-11-21T11:26:36;4.00;;;3.47;;
13228;SDS011;6680;53.220;10.402;2023-11-21T11:29:13;5.70;;;3.90;;
13228;SDS011;6680;53.220;10.402;2023-11-21T11:31:50;5.43;;;3.60;;
13228;SDS011;6680;53.220;10.402;2023-11-21T11:34:29;6.93;;;3.77;;
13228;SDS011;6680;53.220;10.402;2023-11-21T11:37:00;4.27;;;3.87;;
13228;SDS011;6680;53.220;10.402;2023-11-21T11:39:34;4.30;;;3.90;;
13228;SDS011;6680;53.220;10.402;2023-11-21T11:42:04;5.77;;;4.00;;
13228;SDS011;6680;53.220;10.402;2023-11-21T11:44:47;5.97;;;3.70;;
13228;SDS011;6680;53.220;10.402;2023-11-21T11:47:19;4.90;;;4.00;;
13228;SDS011;6680;53.220;10.402;2023-11-21T11:50:02;5.43;;;3.87;;
13228;SDS011;6680;53.220;10.402;2023-11-21T11:52:36;4.17;;;3.67;;
13228;SDS011;6680;53.220;10.402;2023-11-21T11:55:05;3.93;;;3.53;;
13228;SDS011;6680;53.220;10.402;2023-11-21T11:57:35;3.63;;;3.10;;
13228;SDS011;6680;53.220;10.402;2023-11-21T12:00:11;3.40;;;3.00;;
13228;SDS011;6680;53.220;10.402;2023-11-21T12:02:44;7.63;;;3.50;;
13228;SDS011;6680;53.220;10.402;2023-11-21T12:05:12;4.33;;;3.43;;
13228;SDS011;6680;53.220;10.402;2023-11-21T12:07:44;3.60;;;3.20;;
13228;SDS011;6680;53.220;10.402;2023-11-21T12:10:13;5.57;;;3.40;;
13228;SDS011;6680;53.220;10.402;2023-11-21T12:12:43;4.30;;;3.27;;
13228;SDS011;6680;53.220;10.402;2023-11-21T12:15:15;4.07;;;3.60;;
13228;SDS011;6680;53.220;10.402;2023-11-21T12:17:43;3.97;;;3.03;;
13228;SDS011;6680;53.220;10.402;2023-11-21T12:20:12;3.93;;;3.47;;
13228;SDS011;6680;53.220;10.402;2023-11-21T12:22:43;5.13;;;3.10;;
13228;SDS011;6680;53.220;10.402;2023-11-21T12:25:13;5.47;;;3.63;;
13228;SDS011;6680;53.220;10.402;2023-11-21T12:27:44;5.37;;;3.60;;
13228;SDS011;6680;53.220;10.402;2023-11-21T12:30:12;4.30;;;3.57;;
13228;SDS011;6680;53.220;10.402;2023-11-21T12:32:42;3.93;;;3.60;;
13228;SDS011;6680;53.220;10.402;2023-11-21T12:35:11;3.50;;;3.17;;
13228;SDS011;6680;53.220;10.402;2023-11-21T12:37:39;4.77;;;3.63;;
13228;SDS011;6680;53.220;10.402;2023-11-21T12:40:08;3.67;;;3.20;;
13228;SDS011;6680;53.220;10.402;2023-11-21T12:42:37;4.67;;;3.87;;
13228;SDS011;6680;53.220;10.402;2023-11-21T12:45:08;4.20;;;3.70;;
13228;SDS011;6680;53.220;10.402;2023-11-21T12:47:42;4.83;;;3.20;;
13228;SDS011;6680;53.220;10.402;2023-11-21T12:50:10;3.87;;;3.40;;
13228;SDS011;6680;53.220;10.402;2023-11-21T12:52:40;3.67;;;3.27;;
13228;SDS011;6680;53.220;10.402;2023-11-21T12:55:13;5.53;;;3.17;;
13228;SDS011;6680;53.220;10.402;2023-11-21T12:57:42;4.63;;;3.87;;
13228;SDS011;6680;53.220;10.402;2023-11-21T13:00:10;4.10;;;3.33;;
13228;SDS011;6680;53.220;10.402;2023-11-21T13:02:53;5.77;;;3.80;;
13228;SDS011;6680;53.220;10.402;2023-11-21T13:05:28;4.37;;;3.37;;
13228;SDS011;6680;53.220;10.402;2023-11-21T13:08:00;3.73;;;3.37;;
13228;SDS011;6680;53.220;10.402;2023-11-21T13:10:29;5.63;;;3.27;;
13228;SDS011;6680;53.220;10.402;2023-11-21T13:12:59;3.37;;;3.00;;
13228;SDS011;6680;53.220;10.402;2023-11-21T13:15:30;3.80;;;3.40;;
13228;SDS011;6680;53.220;10.402;2023-11-21T13:17:59;4.87;;;3.20;;
13228;SDS011;6680;53.220;10.402;2023-11-21T13:20:26;3.87;;;2.97;;
13228;SDS011;6680;53.220;10.402;2023-11-21T13:22:53;3.60;;;3.30;;
13228;SDS011;6680;53.220;10.402;2023-11-21T13:25:22;5.77;;;3.57;;
13228;SDS011;6680;53.220;10.402;2023-11-21T13:27:52;5.00;;;3.40;;
13228;SDS011;6680;53.220;10.402;2023-11-21T13:30:19;3.80;;;3.40;;
13228;SDS011;6680;53.220;10.402;2023-11-21T13:32:51;3.70;;;3.37;;
13228;SDS011;6680;53.220;10.402;2023-11-21T13:35:19;3.00;;;2.67;;
13228;SDS011;6680;53.220;10.402;2023-11-21T13:37:49;3.83;;;3.07;;
13228;SDS011;6680;53.220;10.402;2023-11-21T13:40:21;6.67;;;3.20;;
13228;SDS011;6680;53.220;10.402;2023-11-21T13:42:52;5.03;;;3.80;;
13228;SDS011;6680;53.220;10.402;2023-11-21T13:45:20;3.70;;;3.33;;
13228;SDS011;6680;53.220;10.402;2023-11-21T13:47:48;4.37;;;3.50;;
13228;SDS011;6680;53.220;10.402;2023-11-21T13:50:17;3.40;;;3.10;;
13228;SDS011;6680;53.220;10.402;2023-11-21T13:52:50;3.73;;;3.40;;
13228;SDS011;6680;53.220;10.402;2023-11-21T13:55:18;3.53;;;2.97;;
13228;SDS011;6680;53.220;10.402;2023-11-21T13:57:46;2.73;;;2.50;;
13228;SDS011;6680;53.220;10.402;2023-11-21T14:00:16;4.10;;;3.40;;
13228;SDS011;6680;53.220;10.402;2023-11-21T14:03:12;3.50;;;3.20;;
13228;SDS011;6680;53.220;10.402;2023-11-21T14:05:47;3.17;;;2.87;;
13228;SDS011;6680;53.220;10.402;2023-11-21T14:08:16;5.53;;;3.70;;
13228;SDS011;6680;53.220;10.402;2023-11-21T14:10:45;3.73;;;3.33;;
13228;SDS011;6680;53.220;10.402;2023-11-21T14:13:18;3.73;;;3.30;;
13228;SDS011;6680;53.220;10.402;2023-11-21T14:15:48;3.93;;;3.33;;
13228;SDS011;6680;53.220;10.402;2023-11-21T14:18:17;3.37;;;3.07;;
13228;SDS011;6680;53.220;10.402;2023-11-21T14:20:53;3.20;;;2.90;;
13228;SDS011;6680;53.220;10.402;2023-11-21T14:23:20;4.10;;;3.43;;
13228;SDS011;6680;53.220;10.402;2023-11-21T14:25:48;4.53;;;3.40;;
13228;SDS011;6680;53.220;10.402;2023-11-21T14:28:16;4.13;;;3.20;;
13228;SDS011;6680;53.220;10.402;2023-11-21T14:30:44;4.47;;;3.70;;
13228;SDS011;6680;53.220;10.402;2023-11-21T14:33:11;5.43;;;3.57;;
13228;SDS011;6680;53.220;10.402;2023-11-21T14:35:38;5.83;;;4.80;;
13228;SDS011;6680;53.220;10.402;2023-11-21T14:38:06;3.83;;;3.43;;
13228;SDS011;6680;53.220;10.402;2023-11-21T14:40:34;3.83;;;3.23;;
13228;SDS011;6680;53.220;10.402;2023-11-21T14:43:02;4.63;;;3.20;;
13228;SDS011;6680;53.220;10.402;2023-11-21T14:45:30;4.57;;;4.17;;
13228;SDS011;6680;53.220;10.402;2023-11-21T14:47:57;3.83;;;3.20;;
13228;SDS011;6680;53.220;10.402;2023-11-21T14:50:31;4.37;;;3.37;;